LFST/SXB METAR and TAF weather

Enter ICAO airport designator
Station Type Date Time Source
LFST METAR 2021/01/27 13:30 UTC NOAA

LFST 271330Z AUTO 17010KT 9999 OVC021 01/00 Q1015 TEMPO OVC010


Station Type Date Time Source
LFST Decoded METAR 2021/01/27 13:30 UTC NOAA

Strasbourg, France (LFST) 48-33N 007-38E 154M
Jan 27, 2021 - 08:30 AM EST / 2021.01.27 1330 UTC
Wind: from the S (170 degrees) at 12 MPH (10 KT):0
Visibility: greater than 7 mile(s):0
Sky conditions: overcast
Temperature: 33 F (1 C)
Windchill: 24 F (-4 C):1
Dew Point: 32 F (0 C)
Relative Humidity: 93%
Pressure (altimeter): 29.97 in. Hg (1015 hPa)
ob: LFST 271330Z AUTO 17010KT 9999 OVC021 01/00 Q1015 TEMPO OVC010
cycle: 13

Station Type Date Time Source
LFST TAF 2021/01/27 12:24 UTC NOAA

TAF LFST 271100Z 2712/2812 18008KT 9999 FEW005 BKN020
TEMPO 2712/2714 -RASN OVC008 PROB30
TEMPO 2712/2713 3000 -SN OVC004
TEMPO 2714/2806 -RA OVC010
TEMPO 2806/2812 4000 RA

Example: see airport list